sensor_id;sensor_type;location;lat;lon;timestamp;temperature;humidity
20091;DHT22;10205;49.678;6.560;2022-08-24T00:00:24;29.10;37.10
20091;DHT22;10205;49.678;6.560;2022-08-24T00:02:51;29.00;37.10
20091;DHT22;10205;49.678;6.560;2022-08-24T00:05:19;29.00;37.20
20091;DHT22;10205;49.678;6.560;2022-08-24T00:07:47;28.90;37.80
20091;DHT22;10205;49.678;6.560;2022-08-24T00:10:15;28.90;37.20
20091;DHT22;10205;49.678;6.560;2022-08-24T00:12:46;28.80;37.30
20091;DHT22;10205;49.678;6.560;2022-08-24T00:15:14;28.80;37.30
20091;DHT22;10205;49.678;6.560;2022-08-24T00:17:42;28.80;37.30
20091;DHT22;10205;49.678;6.560;2022-08-24T00:20:11;28.70;37.60
20091;DHT22;10205;49.678;6.560;2022-08-24T00:22:39;28.60;37.50
20091;DHT22;10205;49.678;6.560;2022-08-24T00:25:08;28.60;37.60
20091;DHT22;10205;49.678;6.560;2022-08-24T00:27:38;28.60;37.60
20091;DHT22;10205;49.678;6.560;2022-08-24T00:30:10;28.50;37.70
20091;DHT22;10205;49.678;6.560;2022-08-24T00:32:40;28.50;37.70
20091;DHT22;10205;49.678;6.560;2022-08-24T00:35:08;28.50;37.70
20091;DHT22;10205;49.678;6.560;2022-08-24T00:37:38;28.40;37.70
20091;DHT22;10205;49.678;6.560;2022-08-24T00:40:10;28.40;37.90
20091;DHT22;10205;49.678;6.560;2022-08-24T00:42:39;28.30;38.60
20091;DHT22;10205;49.678;6.560;2022-08-24T00:45:10;28.20;38.00
20091;DHT22;10205;49.678;6.560;2022-08-24T00:47:43;28.20;38.10
20091;DHT22;10205;49.678;6.560;2022-08-24T00:50:19;28.20;38.10
20091;DHT22;10205;49.678;6.560;2022-08-24T00:52:52;28.10;38.20
20091;DHT22;10205;49.678;6.560;2022-08-24T00:55:26;28.10;38.40
20091;DHT22;10205;49.678;6.560;2022-08-24T00:57:59;28.00;38.90
20091;DHT22;10205;49.678;6.560;2022-08-24T01:00:33;28.00;38.60
20091;DHT22;10205;49.678;6.560;2022-08-24T01:03:05;27.90;39.70
20091;DHT22;10205;49.678;6.560;2022-08-24T01:05:35;27.90;39.20
20091;DHT22;10205;49.678;6.560;2022-08-24T01:08:07;27.80;39.00
20091;DHT22;10205;49.678;6.560;2022-08-24T01:10:42;27.80;39.10
20091;DHT22;10205;49.678;6.560;2022-08-24T01:13:18;27.70;39.10
20091;DHT22;10205;49.678;6.560;2022-08-24T01:18:24;27.60;39.40
20091;DHT22;10205;49.678;6.560;2022-08-24T01:21:14;27.60;39.20
20091;DHT22;10205;49.678;6.560;2022-08-24T01:23:48;27.50;39.20
20091;DHT22;10205;49.678;6.560;2022-08-24T01:26:24;27.50;39.40
20091;DHT22;10205;49.678;6.560;2022-08-24T01:28:56;27.40;39.40
20091;DHT22;10205;49.678;6.560;2022-08-24T01:31:27;27.40;39.40
20091;DHT22;10205;49.678;6.560;2022-08-24T01:33:54;27.40;39.40
20091;DHT22;10205;49.678;6.560;2022-08-24T01:36:29;27.30;39.50
20091;DHT22;10205;49.678;6.560;2022-08-24T01:39:03;27.30;39.60
20091;DHT22;10205;49.678;6.560;2022-08-24T01:41:35;27.20;39.70
20091;DHT22;10205;49.678;6.560;2022-08-24T01:44:02;27.20;39.60
20091;DHT22;10205;49.678;6.560;2022-08-24T01:46:30;27.10;39.70
20091;DHT22;10205;49.678;6.560;2022-08-24T01:48:57;27.10;39.80
20091;DHT22;10205;49.678;6.560;2022-08-24T01:51:28;27.00;40.10
20091;DHT22;10205;49.678;6.560;2022-08-24T01:53:59;27.00;41.40
20091;DHT22;10205;49.678;6.560;2022-08-24T01:56:27;27.00;41.40
20091;DHT22;10205;49.678;6.560;2022-08-24T01:58:55;26.90;40.40
20091;DHT22;10205;49.678;6.560;2022-08-24T02:01:23;26.80;40.30
20091;DHT22;10205;49.678;6.560;2022-08-24T02:03:53;26.80;40.40
20091;DHT22;10205;49.678;6.560;2022-08-24T02:06:20;26.70;40.50
20091;DHT22;10205;49.678;6.560;2022-08-24T02:08:47;26.70;40.50
20091;DHT22;10205;49.678;6.560;2022-08-24T02:11:16;26.70;40.60
20091;DHT22;10205;49.678;6.560;2022-08-24T02:13:43;26.70;40.90
20091;DHT22;10205;49.678;6.560;2022-08-24T02:16:11;26.60;40.70
20091;DHT22;10205;49.678;6.560;2022-08-24T02:18:38;26.60;40.80
20091;DHT22;10205;49.678;6.560;2022-08-24T02:21:07;26.60;40.90
20091;DHT22;10205;49.678;6.560;2022-08-24T02:23:37;26.60;40.80
20091;DHT22;10205;49.678;6.560;2022-08-24T02:26:07;26.50;40.80
20091;DHT22;10205;49.678;6.560;2022-08-24T02:28:37;26.50;40.80
20091;DHT22;10205;49.678;6.560;2022-08-24T02:31:06;26.40;41.70
20091;DHT22;10205;49.678;6.560;2022-08-24T02:33:36;26.40;41.20
20091;DHT22;10205;49.678;6.560;2022-08-24T02:36:05;26.40;41.30
20091;DHT22;10205;49.678;6.560;2022-08-24T02:38:33;26.30;41.20
20091;DHT22;10205;49.678;6.560;2022-08-24T02:41:01;26.30;41.20
20091;DHT22;10205;49.678;6.560;2022-08-24T02:43:28;26.30;41.40
20091;DHT22;10205;49.678;6.560;2022-08-24T02:45:57;26.20;41.40
20091;DHT22;10205;49.678;6.560;2022-08-24T02:48:24;26.20;40.90
20091;DHT22;10205;49.678;6.560;2022-08-24T02:50:52;26.20;41.60
20091;DHT22;10205;49.678;6.560;2022-08-24T02:53:20;26.20;41.60
20091;DHT22;10205;49.678;6.560;2022-08-24T02:55:48;26.10;41.60
20091;DHT22;10205;49.678;6.560;2022-08-24T02:58:16;26.10;41.70
20091;DHT22;10205;49.678;6.560;2022-08-24T03:00:45;26.00;41.70
20091;DHT22;10205;49.678;6.560;2022-08-24T03:03:15;26.00;41.60
20091;DHT22;10205;49.678;6.560;2022-08-24T03:05:42;26.00;41.80
20091;DHT22;10205;49.678;6.560;2022-08-24T03:08:09;26.00;42.50
20091;DHT22;10205;49.678;6.560;2022-08-24T03:10:37;25.90;42.00
20091;DHT22;10205;49.678;6.560;2022-08-24T03:13:04;25.90;41.90
20091;DHT22;10205;49.678;6.560;2022-08-24T03:15:32;25.90;42.60
20091;DHT22;10205;49.678;6.560;2022-08-24T03:18:00;25.80;42.10
20091;DHT22;10205;49.678;6.560;2022-08-24T03:20:28;25.80;42.30
20091;DHT22;10205;49.678;6.560;2022-08-24T03:22:56;25.80;42.30
20091;DHT22;10205;49.678;6.560;2022-08-24T03:25:23;25.70;42.30
20091;DHT22;10205;49.678;6.560;2022-08-24T03:27:53;25.60;42.20
20091;DHT22;10205;49.678;6.560;2022-08-24T03:30:21;25.60;42.40
20091;DHT22;10205;49.678;6.560;2022-08-24T03:32:49;25.60;42.50
20091;DHT22;10205;49.678;6.560;2022-08-24T03:35:17;25.60;42.60
20091;DHT22;10205;49.678;6.560;2022-08-24T03:37:48;25.60;42.80
20091;DHT22;10205;49.678;6.560;2022-08-24T03:40:15;25.50;42.60
20091;DHT22;10205;49.678;6.560;2022-08-24T03:42:44;25.50;42.60
20091;DHT22;10205;49.678;6.560;2022-08-24T03:45:11;25.50;42.60
20091;DHT22;10205;49.678;6.560;2022-08-24T03:47:39;25.40;42.50
20091;DHT22;10205;49.678;6.560;2022-08-24T03:50:07;25.40;43.40
20091;DHT22;10205;49.678;6.560;2022-08-24T03:52:35;25.40;43.10
20091;DHT22;10205;49.678;6.560;2022-08-24T03:55:05;25.30;43.10
20091;DHT22;10205;49.678;6.560;2022-08-24T03:57:33;25.30;43.00
20091;DHT22;10205;49.678;6.560;2022-08-24T04:00:01;25.30;43.00
20091;DHT22;10205;49.678;6.560;2022-08-24T04:02:29;25.20;43.00
20091;DHT22;10205;49.678;6.560;2022-08-24T04:04:58;25.20;42.90
20091;DHT22;10205;49.678;6.560;2022-08-24T04:07:25;25.20;43.00
20091;DHT22;10205;49.678;6.560;2022-08-24T04:09:53;25.10;43.10
20091;DHT22;10205;49.678;6.560;2022-08-24T04:12:21;25.10;43.40
20091;DHT22;10205;49.678;6.560;2022-08-24T04:14:50;25.10;43.30
20091;DHT22;10205;49.678;6.560;2022-08-24T04:17:18;25.00;44.00
20091;DHT22;10205;49.678;6.560;2022-08-24T04:19:45;25.00;43.30
20091;DHT22;10205;49.678;6.560;2022-08-24T04:22:23;25.00;43.30
20091;DHT22;10205;49.678;6.560;2022-08-24T04:24:51;25.00;43.40
20091;DHT22;10205;49.678;6.560;2022-08-24T04:27:18;24.90;43.40
20091;DHT22;10205;49.678;6.560;2022-08-24T04:29:48;24.90;44.60
20091;DHT22;10205;49.678;6.560;2022-08-24T04:32:15;24.80;44.40
20091;DHT22;10205;49.678;6.560;2022-08-24T04:34:43;24.80;44.30
20091;DHT22;10205;49.678;6.560;2022-08-24T04:37:11;24.80;43.80
20091;DHT22;10205;49.678;6.560;2022-08-24T04:39:39;24.70;44.00
20091;DHT22;10205;49.678;6.560;2022-08-24T04:42:07;24.70;44.00
20091;DHT22;10205;49.678;6.560;2022-08-24T04:44:35;24.60;45.10
20091;DHT22;10205;49.678;6.560;2022-08-24T04:47:04;24.60;45.40
20091;DHT22;10205;49.678;6.560;2022-08-24T04:49:33;24.60;44.70
20091;DHT22;10205;49.678;6.560;2022-08-24T04:52:00;24.50;44.30
20091;DHT22;10205;49.678;6.560;2022-08-24T04:54:28;24.50;44.30
20091;DHT22;10205;49.678;6.560;2022-08-24T04:56:56;24.40;44.30
20091;DHT22;10205;49.678;6.560;2022-08-24T04:59:24;24.40;44.40
20091;DHT22;10205;49.678;6.560;2022-08-24T05:01:51;24.40;44.50
20091;DHT22;10205;49.678;6.560;2022-08-24T05:04:20;24.40;44.50
20091;DHT22;10205;49.678;6.560;2022-08-24T05:06:47;24.40;44.90
20091;DHT22;10205;49.678;6.560;2022-08-24T05:09:15;24.40;44.60
20091;DHT22;10205;49.678;6.560;2022-08-24T05:11:42;24.30;44.50
20091;DHT22;10205;49.678;6.560;2022-08-24T05:14:09;24.30;44.60
20091;DHT22;10205;49.678;6.560;2022-08-24T05:16:38;24.30;44.60
20091;DHT22;10205;49.678;6.560;2022-08-24T05:19:05;24.30;44.60
20091;DHT22;10205;49.678;6.560;2022-08-24T05:21:34;24.20;44.60
20091;DHT22;10205;49.678;6.560;2022-08-24T05:24:01;24.20;44.70
20091;DHT22;10205;49.678;6.560;2022-08-24T05:26:29;24.20;44.70
20091;DHT22;10205;49.678;6.560;2022-08-24T05:28:58;24.20;46.10
20091;DHT22;10205;49.678;6.560;2022-08-24T05:31:29;24.10;45.40
20091;DHT22;10205;49.678;6.560;2022-08-24T05:33:58;24.10;45.40
20091;DHT22;10205;49.678;6.560;2022-08-24T05:36:27;24.00;46.40
20091;DHT22;10205;49.678;6.560;2022-08-24T05:38:59;24.00;45.40
20091;DHT22;10205;49.678;6.560;2022-08-24T05:41:28;24.00;45.50
20091;DHT22;10205;49.678;6.560;2022-08-24T05:43:55;24.00;45.40
20091;DHT22;10205;49.678;6.560;2022-08-24T05:46:23;24.00;45.70
20091;DHT22;10205;49.678;6.560;2022-08-24T05:48:50;23.90;45.50
20091;DHT22;10205;49.678;6.560;2022-08-24T05:51:19;23.90;46.40
20091;DHT22;10205;49.678;6.560;2022-08-24T05:53:47;23.80;45.70
20091;DHT22;10205;49.678;6.560;2022-08-24T05:56:17;23.80;45.70
20091;DHT22;10205;49.678;6.560;2022-08-24T05:58:46;23.80;45.80
20091;DHT22;10205;49.678;6.560;2022-08-24T06:01:15;23.80;45.70
20091;DHT22;10205;49.678;6.560;2022-08-24T06:03:44;23.70;46.10
20091;DHT22;10205;49.678;6.560;2022-08-24T06:06:11;23.70;45.80
20091;DHT22;10205;49.678;6.560;2022-08-24T06:08:40;23.70;45.70
20091;DHT22;10205;49.678;6.560;2022-08-24T06:11:10;23.70;45.70
20091;DHT22;10205;49.678;6.560;2022-08-24T06:13:39;23.60;46.10
20091;DHT22;10205;49.678;6.560;2022-08-24T06:16:08;23.60;45.90
20091;DHT22;10205;49.678;6.560;2022-08-24T06:18:38;23.60;45.80
20091;DHT22;10205;49.678;6.560;2022-08-24T06:21:08;23.60;46.30
20091;DHT22;10205;49.678;6.560;2022-08-24T06:23:37;23.60;46.00
20091;DHT22;10205;49.678;6.560;2022-08-24T06:26:07;23.60;46.10
20091;DHT22;10205;49.678;6.560;2022-08-24T06:28:53;23.60;46.50
20091;DHT22;10205;49.678;6.560;2022-08-24T06:31:21;23.60;46.50
20091;DHT22;10205;49.678;6.560;2022-08-24T06:33:49;23.60;46.20
20091;DHT22;10205;49.678;6.560;2022-08-24T06:36:16;23.50;46.20
20091;DHT22;10205;49.678;6.560;2022-08-24T06:38:44;23.50;46.30
20091;DHT22;10205;49.678;6.560;2022-08-24T06:41:11;23.50;46.20
20091;DHT22;10205;49.678;6.560;2022-08-24T06:43:38;23.50;46.40
20091;DHT22;10205;49.678;6.560;2022-08-24T06:46:09;23.50;46.30
20091;DHT22;10205;49.678;6.560;2022-08-24T06:48:37;23.50;46.60
20091;DHT22;10205;49.678;6.560;2022-08-24T06:51:08;23.60;48.40
20091;DHT22;10205;49.678;6.560;2022-08-24T06:53:36;23.50;47.70
20091;DHT22;10205;49.678;6.560;2022-08-24T06:56:04;23.50;47.10
20091;DHT22;10205;49.678;6.560;2022-08-24T06:58:33;23.50;47.30
20091;DHT22;10205;49.678;6.560;2022-08-24T07:01:09;23.50;47.10
20091;DHT22;10205;49.678;6.560;2022-08-24T07:03:38;23.50;49.30
20091;DHT22;10205;49.678;6.560;2022-08-24T07:06:06;23.50;47.50
20091;DHT22;10205;49.678;6.560;2022-08-24T07:08:35;23.50;47.70
20091;DHT22;10205;49.678;6.560;2022-08-24T07:11:02;23.50;48.40
20091;DHT22;10205;49.678;6.560;2022-08-24T07:13:30;23.50;48.40
20091;DHT22;10205;49.678;6.560;2022-08-24T07:15:59;23.60;47.80
20091;DHT22;10205;49.678;6.560;2022-08-24T07:18:28;23.60;48.00
20091;DHT22;10205;49.678;6.560;2022-08-24T07:20:58;23.60;48.40
20091;DHT22;10205;49.678;6.560;2022-08-24T07:23:25;23.60;48.00
20091;DHT22;10205;49.678;6.560;2022-08-24T07:25:52;23.60;49.00
20091;DHT22;10205;49.678;6.560;2022-08-24T07:28:20;23.60;49.20
20091;DHT22;10205;49.678;6.560;2022-08-24T07:30:47;23.70;48.90
20091;DHT22;10205;49.678;6.560;2022-08-24T07:33:15;23.70;48.90
20091;DHT22;10205;49.678;6.560;2022-08-24T07:35:43;23.70;48.80
20091;DHT22;10205;49.678;6.560;2022-08-24T07:38:11;23.70;49.40
20091;DHT22;10205;49.678;6.560;2022-08-24T07:40:39;23.70;49.70
20091;DHT22;10205;49.678;6.560;2022-08-24T07:43:06;23.70;49.80
20091;DHT22;10205;49.678;6.560;2022-08-24T07:45:33;23.80;49.40
20091;DHT22;10205;49.678;6.560;2022-08-24T07:48:01;23.80;49.90
20091;DHT22;10205;49.678;6.560;2022-08-24T07:50:29;23.80;49.30
20091;DHT22;10205;49.678;6.560;2022-08-24T07:52:58;23.90;49.60
20091;DHT22;10205;49.678;6.560;2022-08-24T07:55:25;23.90;49.30
20091;DHT22;10205;49.678;6.560;2022-08-24T07:57:53;24.00;49.20
20091;DHT22;10205;49.678;6.560;2022-08-24T08:00:21;24.00;49.60
20091;DHT22;10205;49.678;6.560;2022-08-24T08:02:48;24.10;49.40
20091;DHT22;10205;49.678;6.560;2022-08-24T08:05:18;24.10;49.00
20091;DHT22;10205;49.678;6.560;2022-08-24T08:07:47;24.20;49.00
20091;DHT22;10205;49.678;6.560;2022-08-24T08:10:16;24.30;48.90
20091;DHT22;10205;49.678;6.560;2022-08-24T08:12:43;24.40;48.90
20091;DHT22;10205;49.678;6.560;2022-08-24T08:15:12;24.40;48.50
20091;DHT22;10205;49.678;6.560;2022-08-24T08:17:39;24.50;48.40
20091;DHT22;10205;49.678;6.560;2022-08-24T08:20:08;24.50;48.30
20091;DHT22;10205;49.678;6.560;2022-08-24T08:22:36;24.60;48.30
20091;DHT22;10205;49.678;6.560;2022-08-24T08:25:22;24.70;48.10
20091;DHT22;10205;49.678;6.560;2022-08-24T08:27:49;24.80;48.00
20091;DHT22;10205;49.678;6.560;2022-08-24T08:30:16;24.80;47.80
20091;DHT22;10205;49.678;6.560;2022-08-24T08:32:43;24.90;47.60
20091;DHT22;10205;49.678;6.560;2022-08-24T08:35:11;25.00;47.50
20091;DHT22;10205;49.678;6.560;2022-08-24T08:37:38;25.10;47.40
20091;DHT22;10205;49.678;6.560;2022-08-24T08:40:08;25.20;47.20
20091;DHT22;10205;49.678;6.560;2022-08-24T08:42:58;25.30;47.10
20091;DHT22;10205;49.678;6.560;2022-08-24T08:45:34;25.40;46.90
20091;DHT22;10205;49.678;6.560;2022-08-24T08:48:45;25.50;46.50
20091;DHT22;10205;49.678;6.560;2022-08-24T08:51:50;25.70;46.20
20091;DHT22;10205;49.678;6.560;2022-08-24T08:54:44;25.80;45.80
20091;DHT22;10205;49.678;6.560;2022-08-24T09:00:26;26.10;45.70
20091;DHT22;10205;49.678;6.560;2022-08-24T09:03:19;26.20;45.60
20091;DHT22;10205;49.678;6.560;2022-08-24T09:06:15;26.30;45.10
20091;DHT22;10205;49.678;6.560;2022-08-24T09:09:06;26.40;44.90
20091;DHT22;10205;49.678;6.560;2022-08-24T09:11:53;26.60;44.70
20091;DHT22;10205;49.678;6.560;2022-08-24T09:14:47;26.70;44.30
20091;DHT22;10205;49.678;6.560;2022-08-24T09:17:55;26.80;44.00
20091;DHT22;10205;49.678;6.560;2022-08-24T09:20:55;26.90;44.20
20091;DHT22;10205;49.678;6.560;2022-08-24T09:23:38;27.10;43.70
20091;DHT22;10205;49.678;6.560;2022-08-24T09:26:20;27.20;43.80
20091;DHT22;10205;49.678;6.560;2022-08-24T09:28:58;27.40;43.30
20091;DHT22;10205;49.678;6.560;2022-08-24T09:31:50;27.50;43.20
20091;DHT22;10205;49.678;6.560;2022-08-24T09:34:33;27.60;43.60
20091;DHT22;10205;49.678;6.560;2022-08-24T09:37:25;27.70;42.80
20091;DHT22;10205;49.678;6.560;2022-08-24T09:40:08;27.80;42.50
20091;DHT22;10205;49.678;6.560;2022-08-24T09:46:14;28.10;41.90
20091;DHT22;10205;49.678;6.560;2022-08-24T09:49:28;28.30;41.60
20091;DHT22;10205;49.678;6.560;2022-08-24T09:52:26;28.50;41.40
20091;DHT22;10205;49.678;6.560;2022-08-24T09:55:37;28.60;41.10
20091;DHT22;10205;49.678;6.560;2022-08-24T09:58:22;28.70;41.60
20091;DHT22;10205;49.678;6.560;2022-08-24T10:01:06;28.80;40.90
20091;DHT22;10205;49.678;6.560;2022-08-24T10:03:52;29.00;39.80
20091;DHT22;10205;49.678;6.560;2022-08-24T10:06:41;29.10;38.70
20091;DHT22;10205;49.678;6.560;2022-08-24T10:12:52;29.40;38.70
20091;DHT22;10205;49.678;6.560;2022-08-24T10:15:28;29.60;38.90
20091;DHT22;10205;49.678;6.560;2022-08-24T10:21:11;29.90;38.20
20091;DHT22;10205;49.678;6.560;2022-08-24T10:23:54;30.10;37.40
20091;DHT22;10205;49.678;6.560;2022-08-24T10:26:39;30.20;37.40
20091;DHT22;10205;49.678;6.560;2022-08-24T10:29:36;30.30;37.00
20091;DHT22;10205;49.678;6.560;2022-08-24T10:32:25;30.50;35.90
20091;DHT22;10205;49.678;6.560;2022-08-24T10:35:12;30.70;36.10
20091;DHT22;10205;49.678;6.560;2022-08-24T10:41:46;31.00;34.10
20091;DHT22;10205;49.678;6.560;2022-08-24T10:44:46;31.10;34.90
20091;DHT22;10205;49.678;6.560;2022-08-24T10:47:20;31.30;34.20
20091;DHT22;10205;49.678;6.560;2022-08-24T10:50:23;31.40;34.40
20091;DHT22;10205;49.678;6.560;2022-08-24T10:53:17;31.60;34.20
20091;DHT22;10205;49.678;6.560;2022-08-24T10:55:56;31.70;32.60
20091;DHT22;10205;49.678;6.560;2022-08-24T11:01:30;32.00;31.90
20091;DHT22;10205;49.678;6.560;2022-08-24T11:04:10;32.10;32.00
20091;DHT22;10205;49.678;6.560;2022-08-24T11:07:09;32.20;32.50
20091;DHT22;10205;49.678;6.560;2022-08-24T11:09:46;32.40;31.20
20091;DHT22;10205;49.678;6.560;2022-08-24T11:12:22;32.40;31.50
20091;DHT22;10205;49.678;6.560;2022-08-24T11:14:54;32.50;32.10
20091;DHT22;10205;49.678;6.560;2022-08-24T11:17:26;32.60;30.90
20091;DHT22;10205;49.678;6.560;2022-08-24T11:19:54;32.70;30.30
20091;DHT22;10205;49.678;6.560;2022-08-24T11:22:34;32.80;30.90
20091;DHT22;10205;49.678;6.560;2022-08-24T11:25:12;32.90;30.20
20091;DHT22;10205;49.678;6.560;2022-08-24T11:27:44;33.00;30.30
20091;DHT22;10205;49.678;6.560;2022-08-24T11:30:24;33.10;30.20
20091;DHT22;10205;49.678;6.560;2022-08-24T11:32:56;33.20;29.50
20091;DHT22;10205;49.678;6.560;2022-08-24T11:35:26;33.30;29.50
20091;DHT22;10205;49.678;6.560;2022-08-24T11:38:06;33.40;30.80
20091;DHT22;10205;49.678;6.560;2022-08-24T11:40:42;33.50;30.70
20091;DHT22;10205;49.678;6.560;2022-08-24T11:43:25;33.60;29.70
20091;DHT22;10205;49.678;6.560;2022-08-24T11:46:12;33.60;30.10
20091;DHT22;10205;49.678;6.560;2022-08-24T11:48:56;33.70;29.80
20091;DHT22;10205;49.678;6.560;2022-08-24T11:51:40;33.80;29.30
20091;DHT22;10205;49.678;6.560;2022-08-24T11:54:18;33.90;29.00
20091;DHT22;10205;49.678;6.560;2022-08-24T11:57:06;34.00;28.60
20091;DHT22;10205;49.678;6.560;2022-08-24T11:59:43;34.10;28.20
20091;DHT22;10205;49.678;6.560;2022-08-24T12:02:24;34.20;27.60
20091;DHT22;10205;49.678;6.560;2022-08-24T12:05:03;34.30;28.00
20091;DHT22;10205;49.678;6.560;2022-08-24T12:07:44;34.30;28.10
20091;DHT22;10205;49.678;6.560;2022-08-24T12:10:28;34.40;27.80
20091;DHT22;10205;49.678;6.560;2022-08-24T12:13:07;34.50;27.90
20091;DHT22;10205;49.678;6.560;2022-08-24T12:15:42;34.60;27.20
20091;DHT22;10205;49.678;6.560;2022-08-24T12:18:23;34.70;26.90
20091;DHT22;10205;49.678;6.560;2022-08-24T12:20:56;34.80;26.70
20091;DHT22;10205;49.678;6.560;2022-08-24T12:23:27;34.90;26.90
20091;DHT22;10205;49.678;6.560;2022-08-24T12:26:02;35.00;27.00
20091;DHT22;10205;49.678;6.560;2022-08-24T12:28:36;35.10;27.10
20091;DHT22;10205;49.678;6.560;2022-08-24T12:31:11;35.10;26.50
20091;DHT22;10205;49.678;6.560;2022-08-24T12:33:47;35.20;26.50
20091;DHT22;10205;49.678;6.560;2022-08-24T12:36:24;35.30;26.30
20091;DHT22;10205;49.678;6.560;2022-08-24T12:39:04;35.40;26.70
20091;DHT22;10205;49.678;6.560;2022-08-24T12:41:39;35.50;26.80
20091;DHT22;10205;49.678;6.560;2022-08-24T12:44:16;35.50;27.10
20091;DHT22;10205;49.678;6.560;2022-08-24T12:46:51;35.60;27.30
20091;DHT22;10205;49.678;6.560;2022-08-24T12:49:24;35.70;26.00
20091;DHT22;10205;49.678;6.560;2022-08-24T12:52:20;35.80;26.30
20091;DHT22;10205;49.678;6.560;2022-08-24T12:55:21;35.90;26.00
20091;DHT22;10205;49.678;6.560;2022-08-24T12:58:31;35.90;26.30
20091;DHT22;10205;49.678;6.560;2022-08-24T13:01:14;36.00;25.40
20091;DHT22;10205;49.678;6.560;2022-08-24T13:03:45;36.20;25.20
20091;DHT22;10205;49.678;6.560;2022-08-24T13:06:19;36.20;25.60
20091;DHT22;10205;49.678;6.560;2022-08-24T13:09:04;36.20;25.40
20091;DHT22;10205;49.678;6.560;2022-08-24T13:11:36;36.30;23.70
20091;DHT22;10205;49.678;6.560;2022-08-24T13:14:06;36.30;25.80
20091;DHT22;10205;49.678;6.560;2022-08-24T13:16:46;36.30;25.40
20091;DHT22;10205;49.678;6.560;2022-08-24T13:19:29;36.30;25.50
20091;DHT22;10205;49.678;6.560;2022-08-24T13:25:41;36.40;25.10
20091;DHT22;10205;49.678;6.560;2022-08-24T13:28:36;36.50;25.20
20091;DHT22;10205;49.678;6.560;2022-08-24T13:31:15;36.50;25.00
20091;DHT22;10205;49.678;6.560;2022-08-24T13:33:49;36.50;23.80
20091;DHT22;10205;49.678;6.560;2022-08-24T13:36:47;36.50;24.30
20091;DHT22;10205;49.678;6.560;2022-08-24T13:39:49;36.50;23.80
20091;DHT22;10205;49.678;6.560;2022-08-24T13:42:49;36.60;24.80
20091;DHT22;10205;49.678;6.560;2022-08-24T13:45:45;36.60;24.50
20091;DHT22;10205;49.678;6.560;2022-08-24T13:48:27;36.70;24.60
20091;DHT22;10205;49.678;6.560;2022-08-24T13:51:18;36.70;24.50
20091;DHT22;10205;49.678;6.560;2022-08-24T13:54:12;36.80;24.70
20091;DHT22;10205;49.678;6.560;2022-08-24T13:57:05;36.80;24.70
20091;DHT22;10205;49.678;6.560;2022-08-24T14:00:10;36.90;24.70
20091;DHT22;10205;49.678;6.560;2022-08-24T14:03:18;36.90;24.30
20091;DHT22;10205;49.678;6.560;2022-08-24T14:06:04;36.90;23.20
20091;DHT22;10205;49.678;6.560;2022-08-24T14:08:54;36.90;24.20
20091;DHT22;10205;49.678;6.560;2022-08-24T14:11:43;36.90;22.10
20091;DHT22;10205;49.678;6.560;2022-08-24T14:14:26;36.90;23.10
20091;DHT22;10205;49.678;6.560;2022-08-24T14:17:16;36.90;23.30
20091;DHT22;10205;49.678;6.560;2022-08-24T14:20:23;36.90;23.50
20091;DHT22;10205;49.678;6.560;2022-08-24T14:23:04;36.90;23.60
20091;DHT22;10205;49.678;6.560;2022-08-24T14:25:46;36.90;23.20
20091;DHT22;10205;49.678;6.560;2022-08-24T14:28:38;37.00;23.70
20091;DHT22;10205;49.678;6.560;2022-08-24T14:31:19;37.00;23.30
20091;DHT22;10205;49.678;6.560;2022-08-24T14:34:02;37.00;22.50
20091;DHT22;10205;49.678;6.560;2022-08-24T14:36:47;37.00;23.20
20091;DHT22;10205;49.678;6.560;2022-08-24T14:39:28;37.00;22.90
20091;DHT22;10205;49.678;6.560;2022-08-24T14:42:10;37.10;22.60
20091;DHT22;10205;49.678;6.560;2022-08-24T14:44:50;37.10;23.00
20091;DHT22;10205;49.678;6.560;2022-08-24T14:47:36;37.10;22.90
20091;DHT22;10205;49.678;6.560;2022-08-24T14:50:16;37.10;23.50
20091;DHT22;10205;49.678;6.560;2022-08-24T14:52:58;37.10;22.30
20091;DHT22;10205;49.678;6.560;2022-08-24T14:55:39;37.10;21.80
20091;DHT22;10205;49.678;6.560;2022-08-24T14:58:22;37.10;21.90
20091;DHT22;10205;49.678;6.560;2022-08-24T15:01:11;37.10;22.30
20091;DHT22;10205;49.678;6.560;2022-08-24T15:07:26;37.10;22.80
20091;DHT22;10205;49.678;6.560;2022-08-24T15:09:58;37.10;22.50
20091;DHT22;10205;49.678;6.560;2022-08-24T15:12:35;37.10;23.00
20091;DHT22;10205;49.678;6.560;2022-08-24T15:15:10;37.10;22.10
20091;DHT22;10205;49.678;6.560;2022-08-24T15:17:56;37.20;22.60
20091;DHT22;10205;49.678;6.560;2022-08-24T15:20:42;37.20;22.40
20091;DHT22;10205;49.678;6.560;2022-08-24T15:23:23;37.20;22.20
20091;DHT22;10205;49.678;6.560;2022-08-24T15:26:08;37.20;22.60
20091;DHT22;10205;49.678;6.560;2022-08-24T15:28:48;37.20;22.10
20091;DHT22;10205;49.678;6.560;2022-08-24T15:31:19;37.30;22.30
20091;DHT22;10205;49.678;6.560;2022-08-24T15:33:55;37.30;22.10
20091;DHT22;10205;49.678;6.560;2022-08-24T15:36:24;37.30;21.80
20091;DHT22;10205;49.678;6.560;2022-08-24T15:38:55;37.40;22.40
20091;DHT22;10205;49.678;6.560;2022-08-24T15:41:25;37.40;22.60
20091;DHT22;10205;49.678;6.560;2022-08-24T15:44:01;37.40;21.70
20091;DHT22;10205;49.678;6.560;2022-08-24T15:46:33;37.40;22.70
20091;DHT22;10205;49.678;6.560;2022-08-24T15:49:06;37.50;22.30
20091;DHT22;10205;49.678;6.560;2022-08-24T15:51:47;37.50;21.30
20091;DHT22;10205;49.678;6.560;2022-08-24T15:54:29;37.40;21.60
20091;DHT22;10205;49.678;6.560;2022-08-24T15:57:02;37.40;22.20
20091;DHT22;10205;49.678;6.560;2022-08-24T15:59:45;37.40;21.00
20091;DHT22;10205;49.678;6.560;2022-08-24T16:02:21;37.40;22.40
20091;DHT22;10205;49.678;6.560;2022-08-24T16:05:08;37.50;21.80
20091;DHT22;10205;49.678;6.560;2022-08-24T16:08:06;37.40;20.60
20091;DHT22;10205;49.678;6.560;2022-08-24T16:10:39;37.40;20.50
20091;DHT22;10205;49.678;6.560;2022-08-24T16:13:12;37.40;21.40
20091;DHT22;10205;49.678;6.560;2022-08-24T16:15:50;37.40;21.80
20091;DHT22;10205;49.678;6.560;2022-08-24T16:18:27;37.40;21.80
20091;DHT22;10205;49.678;6.560;2022-08-24T16:21:14;37.40;22.60
20091;DHT22;10205;49.678;6.560;2022-08-24T16:23:57;37.50;23.40
20091;DHT22;10205;49.678;6.560;2022-08-24T16:26:29;37.50;22.30
20091;DHT22;10205;49.678;6.560;2022-08-24T16:28:58;37.50;22.40
20091;DHT22;10205;49.678;6.560;2022-08-24T16:31:44;37.60;23.90
20091;DHT22;10205;49.678;6.560;2022-08-24T16:34:28;37.50;22.60
20091;DHT22;10205;49.678;6.560;2022-08-24T16:36:58;37.60;24.00
20091;DHT22;10205;49.678;6.560;2022-08-24T16:39:26;37.70;22.60
20091;DHT22;10205;49.678;6.560;2022-08-24T16:41:56;37.70;23.10
20091;DHT22;10205;49.678;6.560;2022-08-24T16:44:27;37.70;23.10
20091;DHT22;10205;49.678;6.560;2022-08-24T16:46:57;37.80;22.10
20091;DHT22;10205;49.678;6.560;2022-08-24T16:49:24;37.80;22.50